createdAt,value
2016-06-04T00:00:20.855Z,91.93
2016-06-04T00:01:20.857Z,92.03
2016-06-04T00:02:20.860Z,92.51
2016-06-04T00:03:20.830Z,92.47
2016-06-04T00:04:20.819Z,92.51
2016-06-04T00:05:20.821Z,92.61
2016-06-04T00:06:20.792Z,92.41
2016-06-04T00:07:20.624Z,91.64
2016-06-04T00:08:20.782Z,91.74
2016-06-04T00:09:20.769Z,92.41
2016-06-04T00:10:20.741Z,92.03
2016-06-04T00:11:21.040Z,92.51
2016-06-04T00:12:20.729Z,92.22
2016-06-04T00:13:20.718Z,91.93
2016-06-04T00:14:20.720Z,92.13
2016-06-04T00:15:20.707Z,92.03
2016-06-04T00:16:20.693Z,91.93
2016-06-04T00:17:20.696Z,92.03
2016-06-04T00:18:20.684Z,92.13
2016-06-04T00:19:20.670Z,92.41
2016-06-04T00:20:20.659Z,91.93
2016-06-04T00:21:20.645Z,91.64
2016-06-04T00:22:20.632Z,92.03
2016-06-04T00:23:20.619Z,92.61
2016-06-04T00:24:20.606Z,92.32
2016-06-04T00:25:20.609Z,92.32
2016-06-04T00:26:20.596Z,92.22
2016-06-04T00:27:20.583Z,92.13
2016-06-04T00:28:20.569Z,92.13
2016-06-04T00:29:20.558Z,93.04
2016-06-04T00:30:20.560Z,92.51
2016-06-04T00:31:20.547Z,93.04
2016-06-04T00:32:20.518Z,92.94
2016-06-04T00:33:20.521Z,92.94
2016-06-04T00:34:20.508Z,92.27
2016-06-04T00:35:20.511Z,93.04
2016-06-04T00:36:20.513Z,93.04
2016-06-04T00:37:20.469Z,92.27
2016-06-04T00:38:20.488Z,93.04
2016-06-04T00:39:20.444Z,92.66
2016-06-04T00:40:20.493Z,92.94
2016-06-04T00:41:20.715Z,92.85
2016-06-04T00:42:20.421Z,93.24
2016-06-04T00:43:20.407Z,92.85
2016-06-04T00:44:20.410Z,92.66
2016-06-04T00:45:20.381Z,92.85
2016-06-04T00:46:20.385Z,92.66
2016-06-04T00:47:20.371Z,92.66
2016-06-04T00:48:20.343Z,92.56
2016-06-04T00:49:20.345Z,93.14
2016-06-04T00:50:20.332Z,93.14
2016-06-04T00:51:20.335Z,93.24
2016-06-04T00:52:20.322Z,92.76
2016-06-04T00:53:20.294Z,93.33
2016-06-04T00:54:20.343Z,93.43
2016-06-04T00:55:20.283Z,92.85
2016-06-04T00:56:20.270Z,93.14
2016-06-04T00:57:20.101Z,92.85
2016-06-04T00:58:20.245Z,93.62
2016-06-04T00:59:20.243Z,93.52
2016-06-04T01:00:20.280Z,93.33
2016-06-04T01:01:20.284Z,93.52
2016-06-04T01:02:20.321Z,93.52
2016-06-04T01:03:20.341Z,93.24
2016-06-04T01:04:20.369Z,93.91
2016-06-04T01:05:20.353Z,93.62
2016-06-04T01:06:20.368Z,93.91
2016-06-04T01:07:20.351Z,93.43
2016-06-04T01:08:20.350Z,93.62
2016-06-04T01:09:20.361Z,94.01
2016-06-04T01:10:20.353Z,94.01
2016-06-04T01:11:21.032Z,93.81
2016-06-04T01:12:20.351Z,94.01
2016-06-04T01:13:20.327Z,94.01
2016-06-04T01:14:20.333Z,93.72
2016-06-04T01:15:20.306Z,93.62
2016-06-04T01:16:20.294Z,94.01
2016-06-04T01:17:20.298Z,94.29
2016-06-04T01:18:20.272Z,93.72
2016-06-04T01:19:20.259Z,94.2
2016-06-04T01:20:20.278Z,94.34
2016-06-04T01:21:20.250Z,93.81
2016-06-04T01:22:20.253Z,94.39
2016-06-04T01:23:20.085Z,94.44
2016-06-04T01:24:20.213Z,94.44
2016-06-04T01:25:20.216Z,94.15
2016-06-04T01:26:20.203Z,93.96
2016-06-04T01:27:20.190Z,94.34
2016-06-04T01:28:20.178Z,94.73
2016-06-04T01:29:20.165Z,94.54
2016-06-04T01:30:20.152Z,94.44
2016-06-04T01:31:20.155Z,94.15
2016-06-04T01:32:20.142Z,94.25
2016-06-04T01:33:20.129Z,94.44
2016-06-04T01:34:20.100Z,94.54
2016-06-04T01:35:20.120Z,94.82
2016-06-04T01:36:20.090Z,94.34
2016-06-04T01:37:20.078Z,94.15
2016-06-04T01:38:20.065Z,95.02
2016-06-04T01:39:20.051Z,94.92
2016-06-04T01:40:20.039Z,94.64
2016-06-04T01:41:20.042Z,94.64
2016-06-04T01:42:20.013Z,94.73
2016-06-04T01:43:20.016Z,94.34
2016-06-04T01:44:20.003Z,94.82
2016-06-04T01:45:19.989Z,94.73
2016-06-04T01:46:19.977Z,94.92
2016-06-04T01:47:19.980Z,94.73
2016-06-04T01:48:19.967Z,94.44
2016-06-04T01:49:19.969Z,94.54
2016-06-04T01:50:19.988Z,94.82
2016-06-04T01:51:19.927Z,94.54
2016-06-04T01:52:19.915Z,94.54
2016-06-04T01:53:19.918Z,94.64
2016-06-04T01:54:19.888Z,94.82
2016-06-04T01:55:19.876Z,94.92
2016-06-04T01:56:19.722Z,94.64
2016-06-04T01:57:19.866Z,94.06
2016-06-04T01:58:19.838Z,94.44
2016-06-04T01:59:19.840Z,94.64
2016-06-04T02:00:19.826Z,94.82
2016-06-04T02:01:19.815Z,95.02
2016-06-04T02:02:19.801Z,94.54
2016-06-04T02:03:19.787Z,94.73
2016-06-04T02:04:19.791Z,94.64
2016-06-04T02:05:19.762Z,95.02
2016-06-04T02:06:19.764Z,94.82
2016-06-04T02:07:19.752Z,94.82
2016-06-04T02:08:19.739Z,94.97
2016-06-04T02:09:19.725Z,95.31
2016-06-04T02:10:19.729Z,95.07
2016-06-04T02:11:19.717Z,94.34
2016-06-04T02:12:19.686Z,94.73
2016-06-04T02:13:19.675Z,95.12
2016-06-04T02:14:19.661Z,94.92
2016-06-04T02:15:19.648Z,95.17
2016-06-04T02:16:19.650Z,94.73
2016-06-04T02:17:19.638Z,94.73
2016-06-04T02:18:19.625Z,94.92
2016-06-04T02:19:19.613Z,94.97
2016-06-04T02:20:19.599Z,95.07
2016-06-04T02:21:19.586Z,94.44
2016-06-04T02:22:19.589Z,94.4
2016-06-04T02:23:19.561Z,94.82
2016-06-04T02:24:19.548Z,95.07
2016-06-04T02:25:19.535Z,94.97
2016-06-04T02:26:19.849Z,95.31
2016-06-04T02:27:19.509Z,94.97
2016-06-04T02:28:19.512Z,95.07
2016-06-04T02:29:19.498Z,94.59
2016-06-04T02:30:19.470Z,94.87
2016-06-04T02:31:19.473Z,94.59
2016-06-04T02:32:19.460Z,95.07
2016-06-04T02:33:19.446Z,95.07
2016-06-04T02:34:19.434Z,95.26
2016-06-04T02:35:19.421Z,95.55
2016-06-04T02:36:19.409Z,95.55
2016-06-04T02:37:19.395Z,95.65
2016-06-04T02:38:19.381Z,95.45
2016-06-04T02:39:19.385Z,95.07
2016-06-04T02:40:19.372Z,95.45
2016-06-04T02:41:19.375Z,95.17
2016-06-04T02:42:19.362Z,95.55
2016-06-04T02:43:19.348Z,95.65
2016-06-04T02:44:19.351Z,95.84
2016-06-04T02:45:19.323Z,95.74
2016-06-04T02:46:19.310Z,95.45
2016-06-04T02:47:19.281Z,95.84
2016-06-04T02:48:19.283Z,96.03
2016-06-04T02:49:19.130Z,95.84
2016-06-04T02:50:19.258Z,96.03
2016-06-04T02:51:19.245Z,96.03
2016-06-04T02:52:19.294Z,96.03
2016-06-04T02:53:19.219Z,96.03
2016-06-04T02:54:19.222Z,95.94
2016-06-04T02:55:19.194Z,95.84
2016-06-04T02:56:19.180Z,96.22
2016-06-04T02:57:19.183Z,96.12
2016-06-04T02:58:19.154Z,95.74
2016-06-04T02:59:19.141Z,96.12
2016-06-04T03:00:19.144Z,95.84
2016-06-04T03:01:19.132Z,95.84
2016-06-04T03:02:19.118Z,96.12
2016-06-04T03:03:19.106Z,96.32
2016-06-04T03:04:19.109Z,96.03
2016-06-04T03:05:19.112Z,96.12
2016-06-04T03:06:19.067Z,96.22
2016-06-04T03:07:19.070Z,96.03
2016-06-04T03:08:19.057Z,96.12
2016-06-04T03:09:19.028Z,95.84
2016-06-04T03:10:19.015Z,95.65
2016-06-04T03:11:19.502Z,95.55
2016-06-04T03:12:19.005Z,95.26
2016-06-04T03:13:18.992Z,95.36
2016-06-04T03:14:18.979Z,95.84
2016-06-04T03:15:18.966Z,96.17
2016-06-04T03:16:18.953Z,96.12
2016-06-04T03:17:18.940Z,96.32
2016-06-04T03:18:18.927Z,95.74
2016-06-04T03:19:18.931Z,96.12
2016-06-04T03:20:18.902Z,95.94
2016-06-04T03:21:18.904Z,96.12
2016-06-04T03:22:18.892Z,95.6
2016-06-04T03:23:18.878Z,95.94
2016-06-04T03:24:18.850Z,96.03
2016-06-04T03:25:18.868Z,96.61
2016-06-04T03:26:18.839Z,96.66
2016-06-04T03:27:18.827Z,96.47
2016-06-04T03:28:18.830Z,96.85
2016-06-04T03:29:18.832Z,96.56
2016-06-04T03:30:18.804Z,96.56
2016-06-04T03:31:18.775Z,96.8
2016-06-04T03:32:18.794Z,96.7
2016-06-04T03:33:18.764Z,96.99
2016-06-04T03:34:18.752Z,97.09
2016-06-04T03:35:18.801Z,96.61
2016-06-04T03:36:18.741Z,96.61
2016-06-04T03:37:18.728Z,97.09
2016-06-04T03:38:18.700Z,96.99
2016-06-04T03:39:18.687Z,97.09
2016-06-04T03:40:18.674Z,97.47
2016-06-04T03:41:18.676Z,96.75
2016-06-04T03:42:18.648Z,96.89
2016-06-04T03:43:18.650Z,96.8
2016-06-04T03:44:18.637Z,96.8
2016-06-04T03:45:18.687Z,96.8
2016-06-04T03:46:18.612Z,96.94
2016-06-04T03:47:18.615Z,96.89
2016-06-04T03:48:18.602Z,96.51
2016-06-04T03:49:18.651Z,97.09
2016-06-04T03:50:18.560Z,96.61
2016-06-04T03:51:18.610Z,96.61
2016-06-04T03:52:18.533Z,96.27
2016-06-04T03:53:18.537Z,96.42
2016-06-04T03:54:18.524Z,96.03
2016-06-04T03:55:18.511Z,96.03
2016-06-04T03:56:18.498Z,96.12
2016-06-04T03:57:18.485Z,96.51
2016-06-04T03:58:18.472Z,96.03
2016-06-04T03:59:18.460Z,95.74
2016-06-04T04:00:18.462Z,95.65
2016-06-04T04:01:18.418Z,96.03
2016-06-04T04:02:18.421Z,96.22
2016-06-04T04:03:18.424Z,96.03
2016-06-04T04:04:18.395Z,96.22
2016-06-04T04:05:18.398Z,96.03
2016-06-04T04:06:18.385Z,96.03
2016-06-04T04:07:18.449Z,96.22
2016-06-04T04:08:18.374Z,96.03
2016-06-04T04:09:18.345Z,96.12
2016-06-04T04:10:18.332Z,96.51
2016-06-04T04:11:18.351Z,96.12
2016-06-04T04:12:18.307Z,96.12
2016-06-04T04:13:18.340Z,96.03
2016-06-04T04:14:18.281Z,96.22
2016-06-04T04:15:18.300Z,96.12
2016-06-04T04:16:18.255Z,96.03
2016-06-04T04:17:18.273Z,96.03
2016-06-04T04:18:18.245Z,96.22
2016-06-04T04:19:18.231Z,96.32
2016-06-04T04:20:18.219Z,96.22
2016-06-04T04:21:18.050Z,95.84
2016-06-04T04:22:18.194Z,96.12
2016-06-04T04:23:18.180Z,95.94
2016-06-04T04:24:18.183Z,96.12
2016-06-04T04:25:18.155Z,96.12
2016-06-04T04:26:18.173Z,95.94
2016-06-04T04:27:18.144Z,96.12
2016-06-04T04:28:18.131Z,96.17
2016-06-04T04:29:18.119Z,96.12
2016-06-04T04:30:18.105Z,96.12
2016-06-04T04:31:18.076Z,96.12
2016-06-04T04:32:18.079Z,96.12
2016-06-04T04:33:18.066Z,96.32
2016-06-04T04:34:18.054Z,95.74
2016-06-04T04:35:18.056Z,96.32
2016-06-04T04:36:18.043Z,95.94
2016-06-04T04:37:18.030Z,96.22
2016-06-04T04:38:18.017Z,96.32
2016-06-04T04:39:18.005Z,95.89
2016-06-04T04:40:17.992Z,96.27
2016-06-04T04:41:18.260Z,96.56
2016-06-04T04:42:17.965Z,96.17
2016-06-04T04:43:17.968Z,96.37
2016-06-04T04:44:17.940Z,96.42
2016-06-04T04:45:17.927Z,95.79
2016-06-04T04:46:17.914Z,96.08
2016-06-04T04:47:17.917Z,96.27
2016-06-04T04:48:17.903Z,96.08
2016-06-04T04:49:17.891Z,95.89
2016-06-04T04:50:17.862Z,95.69
2016-06-04T04:51:17.881Z,95.89
2016-06-04T04:52:17.867Z,95.5
2016-06-04T04:53:17.839Z,95.69
2016-06-04T04:54:17.842Z,95.5
2016-06-04T04:55:17.829Z,95.4
2016-06-04T04:56:17.816Z,95.21
2016-06-04T04:57:17.802Z,95.4
2016-06-04T04:58:17.806Z,95.07
2016-06-04T04:59:17.761Z,94.92
2016-06-04T05:00:17.810Z,95.16
2016-06-04T05:01:17.610Z,95.07
2016-06-04T05:02:17.738Z,95.07
2016-06-04T05:03:17.725Z,95.16
2016-06-04T05:04:17.728Z,95.16
2016-06-04T05:05:17.715Z,94.68
2016-06-04T05:06:17.702Z,95.07
2016-06-04T05:07:17.705Z,94.78
2016-06-04T05:08:17.707Z,94.97
2016-06-04T05:09:17.679Z,95.07
2016-06-04T05:10:17.494Z,94.59
2016-06-04T05:11:17.653Z,95.07
2016-06-04T05:12:17.624Z,94.49
2016-06-04T05:13:17.627Z,94.29
2016-06-04T05:14:17.599Z,94.54
2016-06-04T05:15:17.601Z,94.63
2016-06-04T05:16:17.588Z,94.06
2016-06-04T05:17:17.592Z,94.39
2016-06-04T05:18:17.578Z,94.34
2016-06-04T05:19:17.550Z,94.24
2016-06-04T05:20:17.553Z,94.15
2016-06-04T05:21:17.540Z,94.34
2016-06-04T05:22:17.526Z,94.54
2016-06-04T05:23:17.513Z,94.24
2016-06-04T05:24:17.532Z,93.66
2016-06-04T05:25:17.597Z,94.15
2016-06-04T05:26:17.491Z,93.66
2016-06-04T05:27:17.461Z,93.86
2016-06-04T05:28:17.464Z,94.06
2016-06-04T05:29:17.467Z,93.48
2016-06-04T05:30:17.469Z,93.57
2016-06-04T05:31:17.472Z,93.57
2016-06-04T05:32:17.428Z,93.38
2016-06-04T05:33:17.431Z,92.99
2016-06-04T05:34:17.402Z,93.28
2016-06-04T05:35:17.436Z,92.9
2016-06-04T05:36:17.376Z,92.99
2016-06-04T05:37:17.380Z,92.94
2016-06-04T05:38:17.366Z,92.56
2016-06-04T05:39:17.369Z,93.04
2016-06-04T05:40:17.341Z,92.56
2016-06-04T05:41:17.327Z,92.08
2016-06-04T05:42:17.315Z,92.17
2016-06-04T05:43:17.301Z,92.65
2016-06-04T05:44:17.304Z,92.65
2016-06-04T05:45:17.292Z,91.5
2016-06-04T05:46:17.278Z,91.2
2016-06-04T05:47:17.312Z,91.11
2016-06-04T05:48:17.253Z,91.3
2016-06-04T05:49:17.256Z,90.87
2016-06-04T05:50:17.242Z,90.92
2016-06-04T05:51:17.276Z,91.2
2016-06-04T05:52:17.217Z,91.11
2016-06-04T05:53:17.203Z,90.92
2016-06-04T05:54:17.191Z,91.06
2016-06-04T05:55:17.194Z,91.06
2016-06-04T05:56:17.180Z,90.58
2016-06-04T05:57:17.167Z,90.77
2016-06-04T05:58:17.186Z,91.06
2016-06-04T05:59:17.142Z,91.25
2016-06-04T06:00:17.128Z,91.06
2016-06-04T06:01:17.116Z,90.58
2016-06-04T06:02:17.102Z,90.58
2016-06-04T06:03:17.122Z,89.23
2016-06-04T06:04:17.093Z,89.47
2016-06-04T06:05:17.096Z,89.37
2016-06-04T06:06:17.066Z,88.79
2016-06-04T06:07:17.069Z,88.89
2016-06-04T06:08:17.056Z,89.47
2016-06-04T06:09:17.059Z,88.98
2016-06-04T06:10:17.046Z,88.79
2016-06-04T06:11:17.049Z,88.73
2016-06-04T06:12:17.004Z,89.61
2016-06-04T06:13:17.007Z,88.25
2016-06-04T06:14:16.995Z,87.96
2016-06-04T06:15:16.982Z,87.87
2016-06-04T06:16:16.984Z,87.29
2016-06-04T06:17:16.956Z,87.48
2016-06-04T06:18:16.943Z,87.96
2016-06-04T06:19:16.945Z,87.48
2016-06-04T06:20:16.979Z,86.52
2016-06-04T06:21:16.935Z,86.32
2016-06-04T06:22:16.922Z,86.71
2016-06-04T06:23:16.925Z,86.9
2016-06-04T06:24:16.911Z,87.23
2016-06-04T06:25:16.883Z,87.23
2016-06-04T06:26:16.934Z,87.04
2016-06-04T06:27:16.873Z,87.04
2016-06-04T06:28:16.907Z,86.65
2016-06-04T06:29:16.863Z,86.56
2016-06-04T06:30:16.866Z,87.23
2016-06-04T06:31:16.852Z,86.46
2016-06-04T06:32:16.886Z,86.46
2016-06-04T06:33:16.827Z,86.75
2016-06-04T06:34:16.845Z,87.76
2016-06-04T06:35:16.801Z,87.18
2016-06-04T06:36:16.804Z,86.69
2016-06-04T06:37:16.807Z,85.35
2016-06-04T06:38:16.793Z,84.95
2016-06-04T06:39:16.765Z,84.95
2016-06-04T06:40:16.783Z,84.47
2016-06-04T06:41:17.176Z,85.53
2016-06-04T06:42:16.757Z,85.44
2016-06-04T06:43:16.744Z,85.58
2016-06-04T06:44:16.731Z,86.35
2016-06-04T06:45:16.718Z,86.16
2016-06-04T06:46:16.706Z,84.22
2016-06-04T06:47:16.709Z,83.94
2016-06-04T06:48:16.695Z,83.49
2016-06-04T06:49:16.682Z,83.55
2016-06-04T06:50:16.684Z,83.11
2016-06-04T06:51:16.704Z,83.59
2016-06-04T06:52:16.690Z,83.4
2016-06-04T06:53:16.662Z,83.49
2016-06-04T06:54:16.664Z,83.01
2016-06-04T06:55:16.636Z,82.33
2016-06-04T06:56:16.717Z,82.43
2016-06-04T06:57:16.610Z,81.21
2016-06-04T06:58:16.613Z,80.98
2016-06-04T06:59:16.616Z,80.82
2016-06-04T07:00:16.587Z,80.05
2016-06-04T07:01:16.590Z,80.15
2016-06-04T07:02:16.577Z,80.82
2016-06-04T07:03:16.580Z,80.79
2016-06-04T07:04:16.566Z,79.57
2016-06-04T07:05:16.553Z,80.92
2016-06-04T07:06:16.556Z,80.44
2016-06-04T07:07:16.544Z,81.12
2016-06-04T07:08:16.530Z,81.4
2016-06-04T07:09:16.517Z,82.18
2016-06-04T07:10:16.535Z,80.77
2016-06-04T07:11:16.507Z,80.09
2016-06-04T07:12:16.509Z,79.41
2016-06-04T07:13:16.559Z,79.7
2016-06-04T07:14:16.485Z,80.09
2016-06-04T07:15:16.471Z,80.57
2016-06-04T07:16:16.457Z,80.77
2016-06-04T07:17:16.460Z,80.09
2016-06-04T07:18:16.448Z,79.32
2016-06-04T07:19:16.451Z,79.7
2016-06-04T07:20:16.437Z,79.99
2016-06-04T07:21:16.518Z,79.02
2016-06-04T07:22:16.428Z,78.64
2016-06-04T07:23:16.431Z,80.19
2016-06-04T07:24:16.417Z,79.16
2016-06-04T07:25:16.450Z,78.87
2016-06-04T07:26:16.579Z,78.97
2016-06-04T07:27:16.394Z,77.61
2016-06-04T07:28:16.381Z,78.19
2016-06-04T07:29:16.384Z,77.03
2016-06-04T07:30:16.370Z,77.42
2016-06-04T07:31:16.358Z,77.61
2016-06-04T07:32:16.344Z,78.67
2016-06-04T07:33:16.332Z,78.58
2016-06-04T07:34:16.350Z,78.58
2016-06-04T07:35:16.338Z,78.29
2016-06-04T07:36:16.308Z,79.74
2016-06-04T07:37:16.343Z,79.16
2016-06-04T07:38:16.314Z,78.19
2016-06-04T07:39:16.286Z,77.84
2016-06-04T07:40:16.288Z,77.75
2016-06-04T07:41:16.900Z,77.75
2016-06-04T07:42:16.294Z,76.97
2016-06-04T07:43:16.266Z,76.39
2016-06-04T07:44:16.268Z,75.42
2016-06-04T07:45:16.254Z,74.54
2016-06-04T07:46:16.273Z,75.03
2016-06-04T07:47:16.245Z,76.19
2016-06-04T07:48:16.248Z,75.51
2016-06-04T07:49:16.093Z,75.23
2016-06-04T07:50:16.221Z,75.55
2016-06-04T07:51:16.224Z,74.77
2016-06-04T07:52:16.211Z,75.36
2016-06-04T07:53:16.214Z,75.16
2016-06-04T07:54:16.200Z,75.49
2016-06-04T07:55:16.204Z,73.65
2016-06-04T07:56:16.034Z,75.01
2016-06-04T07:57:16.178Z,74.62
2016-06-04T07:58:16.165Z,71.26
2016-06-04T07:59:16.167Z,71.64
2016-06-04T08:00:16.233Z,70.45
2016-06-04T08:01:16.142Z,71.61
2016-06-04T08:02:16.144Z,71.45
2016-06-04T08:03:16.147Z,71.55
2016-06-04T08:04:16.150Z,73.2
2016-06-04T08:05:16.152Z,71.55
2016-06-04T08:06:16.108Z,72.52
2016-06-04T08:07:19.033Z,71.55
2016-06-04T08:08:16.098Z,69.22
2016-06-04T08:09:16.100Z,70.77
2016-06-04T08:10:16.103Z,72.13
2016-06-04T08:11:16.090Z,72.52
2016-06-04T08:12:20.327Z,70.12
2016-06-04T08:13:16.065Z,70.03
2016-06-04T08:14:16.082Z,70.71
2016-06-04T08:15:16.071Z,70.51
2016-06-04T08:16:16.057Z,71.55
2016-06-04T08:17:16.076Z,70.93
2016-06-04T08:18:16.046Z,72
2016-06-04T08:19:16.049Z,72.29
2016-06-04T08:20:16.052Z,72.77
2016-06-04T08:21:16.039Z,73.07
2016-06-04T08:22:16.026Z,72.29
2016-06-04T08:23:16.012Z,71.22
2016-06-04T08:24:16.016Z,72.29
2016-06-04T08:25:16.003Z,72.67
2016-06-04T08:26:16.256Z,72.49
2016-06-04T08:27:15.993Z,72.19
2016-06-04T08:28:15.980Z,72.87
2016-06-04T08:29:15.983Z,73.74
2016-06-04T08:30:15.969Z,73.55
2016-06-04T08:31:15.972Z,72.87
2016-06-04T08:32:15.975Z,72.19
2016-06-04T08:33:15.946Z,73.16
2016-06-04T08:34:15.950Z,72.19
2016-06-04T08:35:15.936Z,72.97
2016-06-04T08:36:15.969Z,74.62
2016-06-04T08:37:15.941Z,72.58
2016-06-04T08:38:15.928Z,73.55
2016-06-04T08:39:15.930Z,73.97
2016-06-04T08:40:15.902Z,73.78
2016-06-04T08:41:15.890Z,72.91
2016-06-04T08:42:16.298Z,72.71
2016-06-04T08:43:15.910Z,73.68
2016-06-04T08:44:15.899Z,73.04
2016-06-04T08:45:15.885Z,72.33
2016-06-04T08:46:15.872Z,71.97
2016-06-04T08:47:15.874Z,70.71
2016-06-04T08:48:15.862Z,70.97
2016-06-04T08:49:15.849Z,71.29
2016-06-04T08:50:15.851Z,70.09
2016-06-04T08:51:15.838Z,71.39
2016-06-04T08:52:15.826Z,72.36
2016-06-04T08:53:15.828Z,72.65
2016-06-04T08:54:15.815Z,71
2016-06-04T08:55:15.818Z,69.45
2016-06-04T08:56:15.805Z,70.03
2016-06-04T08:57:15.808Z,70.61
2016-06-04T08:58:16.154Z,70.9
2016-06-04T08:59:15.797Z,68.96
2016-06-04T09:00:15.784Z,70.55
2016-06-04T09:01:15.772Z,70.16
2016-06-04T09:02:15.790Z,71.62
2016-06-04T09:03:15.777Z,71.23
2016-06-04T09:04:15.764Z,69.38
2016-06-04T09:05:15.751Z,70.36
2016-06-04T09:06:15.754Z,68.02
2016-06-04T09:07:15.741Z,69.38
2016-06-04T09:08:15.759Z,69.19
2016-06-04T09:09:15.731Z,68.8
2016-06-04T09:10:15.718Z,69.38
2016-06-04T09:11:15.721Z,67.05
2016-06-04T09:12:16.302Z,68.25
2016-06-04T09:13:15.772Z,68.51
2016-06-04T09:14:15.760Z,69.96
2016-06-04T09:15:15.699Z,68.35
2016-06-04T09:16:15.703Z,67.96
2016-06-04T09:17:15.690Z,69.51
2016-06-04T09:18:15.692Z,67.96
2016-06-04T09:19:15.680Z,68.25
2016-06-04T09:20:15.682Z,67.86
2016-06-04T09:21:15.669Z,67.57
2016-06-04T09:22:15.657Z,68.09
2016-06-04T09:23:15.659Z,69.71
2016-06-04T09:24:15.646Z,67.86
2016-06-04T09:25:15.634Z,67.9
2016-06-04T09:26:15.651Z,66.83
2016-06-04T09:27:15.654Z,67.8
2016-06-04T09:28:15.750Z,69.65
2016-06-04T09:29:17.113Z,67.9
2016-06-04T09:30:15.615Z,64.62
2016-06-04T09:31:15.617Z,65.27
2016-06-04T09:32:15.620Z,66.6
2016-06-04T09:33:15.609Z,66.73
2016-06-04T09:34:15.595Z,66.73
2016-06-04T09:35:15.598Z,66.73
2016-06-04T09:36:15.600Z,65.37
2016-06-04T09:37:15.572Z,65.17
2016-06-04T09:38:15.575Z,64.32
2016-06-04T09:39:15.577Z,64.59
2016-06-04T09:40:15.564Z,65.46
2016-06-04T09:41:15.567Z,67.05
2016-06-04T09:42:15.555Z,66.08
2016-06-04T09:43:15.557Z,64.81
2016-06-04T09:44:15.560Z,64.07
2016-06-04T09:45:15.562Z,65.33
2016-06-04T09:46:15.533Z,64.65
2016-06-04T09:47:15.536Z,65.92
2016-06-04T09:48:15.538Z,64.26
2016-06-04T09:49:15.541Z,63.58
2016-06-04T09:50:15.529Z,63.48
2016-06-04T09:51:15.532Z,61.66
2016-06-04T09:52:15.518Z,60.98
2016-06-04T09:53:15.551Z,61.66
2016-06-04T09:54:15.352Z,62.15
2016-06-04T09:55:15.495Z,62.54
2016-06-04T09:56:15.498Z,64.32
2016-06-04T09:57:15.500Z,64.62
2016-06-04T09:58:15.504Z,62.18
2016-06-04T09:59:15.740Z,62.28
2016-06-04T10:00:15.478Z,61.69
2016-06-04T10:01:16.605Z,60.39
2016-06-04T10:02:15.467Z,60.98
2016-06-04T10:03:15.454Z,60.78
2016-06-04T10:04:15.457Z,59.52
2016-06-04T10:05:15.476Z,59.62
2016-06-04T10:06:16.179Z,60.03
2016-06-04T10:07:15.537Z,60.94
2016-06-04T10:08:15.553Z,58.89
2016-06-04T10:09:15.583Z,58.8
2016-06-04T10:10:15.586Z,58.34
2016-06-04T10:11:15.599Z,56.48
2016-06-04T10:12:15.596Z,57.82
2016-06-04T10:13:15.594Z,59.38
2016-06-04T10:14:15.606Z,58.7
2016-06-04T10:15:15.615Z,57.34
2016-06-04T10:16:15.465Z,57.63
2016-06-04T10:17:15.595Z,57.92
2016-06-04T10:18:15.616Z,56.58
2016-06-04T10:19:15.623Z,56.36
2016-06-04T10:20:15.613Z,56.46
2016-06-04T10:21:15.804Z,56.85
2016-06-04T10:22:15.605Z,56.29
2016-06-04T10:23:15.468Z,56.29
2016-06-04T10:24:15.614Z,56.38
2016-06-04T10:25:15.601Z,57.59
2016-06-04T10:26:15.604Z,56.35
2016-06-04T10:27:15.624Z,55.76
2016-06-04T10:28:15.595Z,55.76
2016-06-04T10:29:15.599Z,55.27
2016-06-04T10:30:15.585Z,54.79
2016-06-04T10:31:15.588Z,54.49
2016-06-04T10:32:15.435Z,55.57
2016-06-04T10:33:15.577Z,54.13
2016-06-04T10:34:15.565Z,53.13
2016-06-04T10:35:15.568Z,55.49
2016-06-04T10:36:15.570Z,55.08
2016-06-04T10:37:15.573Z,54.32
2016-06-04T10:38:15.560Z,54.79
2016-06-04T10:39:15.579Z,53.42
2016-06-04T10:40:15.581Z,53.29
2016-06-04T10:41:15.584Z,53.49
2016-06-04T10:42:15.556Z,52.58
2016-06-04T10:43:15.559Z,52.29
2016-06-04T10:44:15.717Z,52.58
2016-06-04T10:45:15.548Z,53.07
2016-06-04T10:46:15.550Z,53.46
2016-06-04T10:47:15.616Z,52.87
2016-06-04T10:48:15.540Z,52.87
2016-06-04T10:49:15.542Z,53.14
2016-06-04T10:50:15.545Z,53.6
2016-06-04T10:51:15.533Z,53.83
2016-06-04T10:52:15.536Z,55.61
2016-06-04T10:53:15.538Z,55.32
2016-06-04T10:54:15.509Z,54.34
2016-06-04T10:55:15.511Z,52.78
2016-06-04T10:56:15.514Z,52.66
2016-06-04T10:57:15.892Z,52.75
2016-06-04T10:58:15.519Z,53.24
2016-06-04T10:59:15.508Z,52.83
2016-06-04T11:00:15.510Z,51.78
2016-06-04T11:01:15.482Z,51.97
2016-06-04T11:02:15.500Z,52.17
2016-06-04T11:03:15.488Z,52.75
2016-06-04T11:04:15.490Z,52.36
2016-06-04T11:05:15.493Z,51.78
2016-06-04T11:06:15.463Z,52.17
2016-06-04T11:07:15.466Z,53.17
2016-06-04T11:08:15.469Z,53.46
2016-06-04T11:09:15.471Z,53.73
2016-06-04T11:10:15.474Z,54.99
2016-06-04T11:11:15.476Z,55.36
2016-06-04T11:12:15.465Z,53.89
2016-06-04T11:13:15.514Z,53.8
2016-06-04T11:14:15.876Z,54.26
2016-06-04T11:15:15.457Z,54.77
2016-06-04T11:16:15.444Z,55.16
2016-06-04T11:17:15.446Z,54.87
2016-06-04T11:18:15.465Z,54.77
2016-06-04T11:19:15.437Z,52.85
2016-06-04T11:20:15.501Z,52.46
2016-06-04T11:21:15.442Z,54.11
2016-06-04T11:22:15.475Z,56.1
2016-06-04T11:23:15.416Z,54.93
2016-06-04T11:24:15.419Z,55.15
2016-06-04T11:25:15.422Z,54.05
2016-06-04T11:26:15.408Z,52.51
2016-06-04T11:27:15.395Z,52.61
2016-06-04T11:28:15.742Z,52.54
2016-06-04T11:29:15.401Z,52.22
2016-06-04T11:30:15.388Z,53.39
2016-06-04T11:31:15.391Z,53.95
2016-06-04T11:32:15.393Z,54.83
2016-06-04T11:33:15.364Z,54.34
2016-06-04T11:34:15.367Z,53.95
2016-06-04T11:35:15.386Z,53.46
2016-06-04T11:36:15.372Z,54.14
2016-06-04T11:37:15.359Z,54.95
2016-06-04T11:38:15.363Z,54.24
2016-06-04T11:39:15.365Z,53.27
2016-06-04T11:40:15.352Z,54.34
2016-06-04T11:41:15.354Z,54.05
2016-06-04T11:42:15.342Z,53.27
2016-06-04T11:43:15.359Z,53.56
2016-06-04T11:44:15.348Z,52.78
2016-06-04T11:45:15.396Z,54.14
2016-06-04T11:46:15.320Z,54.05
2016-06-04T11:47:15.356Z,52.75
2016-06-04T11:48:15.327Z,53.92
2016-06-04T11:49:15.392Z,54.19
2016-06-04T11:50:15.348Z,53.05
2016-06-04T11:51:15.320Z,54.14
2016-06-04T11:52:15.306Z,53.36
2016-06-04T11:53:15.340Z,53.78
2016-06-04T11:54:15.296Z,53.09
2016-06-04T11:55:15.298Z,52.54
2016-06-04T11:56:15.332Z,52.73
2016-06-04T11:57:15.117Z,53.19
2016-06-04T11:58:15.275Z,52.54
2016-06-04T11:59:15.341Z,52.83
2016-06-04T12:00:15.266Z,53.32
2016-06-04T12:01:15.268Z,52.44
2016-06-04T12:02:15.271Z,50.2
2016-06-04T12:03:15.257Z,51.56
2016-06-04T12:04:15.261Z,52.93
2016-06-04T12:05:15.263Z,50.78
2016-06-04T12:06:15.266Z,51.46
2016-06-04T12:07:15.252Z,50.39
2016-06-04T12:08:15.100Z,50.51
2016-06-04T12:09:15.258Z,51.88
2016-06-04T12:10:15.089Z,50.9
2016-06-04T12:11:15.248Z,49.24
2016-06-04T12:12:15.454Z,49.73
2016-06-04T12:13:15.238Z,49.53
2016-06-04T12:14:15.068Z,49.73
2016-06-04T12:15:15.227Z,49.63
2016-06-04T12:16:15.230Z,48.75
2016-06-04T12:17:15.217Z,50.73
2016-06-04T12:18:15.220Z,50.42
2016-06-04T12:19:15.223Z,47.97
2016-06-04T12:20:15.273Z,48.36
2016-06-04T12:21:15.212Z,49.63
2016-06-04T12:22:15.200Z,49.73
2016-06-04T12:23:15.202Z,49.43
2016-06-04T12:24:15.189Z,49.73
2016-06-04T12:25:15.192Z,49.73
2016-06-04T12:26:15.210Z,49.43
2016-06-04T12:27:15.198Z,48.26
2016-06-04T12:28:15.200Z,49.53
2016-06-04T12:29:15.640Z,52.56
2016-06-04T12:30:15.174Z,50.83
2016-06-04T12:31:15.192Z,47.31
2016-06-04T12:32:15.180Z,47.38
2016-06-04T12:33:15.182Z,48.07
2016-06-04T12:34:15.185Z,48.65
2016-06-04T12:35:15.172Z,48.07
2016-06-04T12:36:15.175Z,46.62
2016-06-04T12:37:15.161Z,47.41
2016-06-04T12:38:15.149Z,47.7
2016-06-04T12:39:15.152Z,47.99
2016-06-04T12:40:15.169Z,48.48
2016-06-04T12:41:15.157Z,50.27
2016-06-04T12:42:15.597Z,50.95
2016-06-04T12:43:15.646Z,48.92
2016-06-04T12:44:15.149Z,48.63
2016-06-04T12:45:15.229Z,47.16
2016-06-04T12:46:15.140Z,48.6
2016-06-04T12:47:15.173Z,50.17
2016-06-04T12:48:15.145Z,49.68
2016-06-04T12:49:15.131Z,48.7
2016-06-04T12:50:15.118Z,49.97
2016-06-04T12:51:15.137Z,50.54
2016-06-04T12:52:15.108Z,51.9
2016-06-04T12:53:15.173Z,51.1
2016-06-04T12:54:15.114Z,52.15